createdAt,value
2019-05-05T00:01:45.212Z,3.81
2019-05-05T00:04:39.104Z,3.82
2019-05-05T00:07:08.282Z,3.81
2019-05-05T00:09:37.477Z,3.80
2019-05-05T00:12:29.869Z,3.80
2019-05-05T00:15:18.411Z,3.77
2019-05-05T00:17:47.605Z,3.75
2019-05-05T00:20:16.832Z,3.73
2019-05-05T00:22:45.997Z,3.72
2019-05-05T00:25:15.105Z,3.67
2019-05-05T00:27:45.242Z,3.61
2019-05-05T00:30:14.756Z,3.56
2019-05-05T00:32:44.321Z,3.50
2019-05-05T00:35:14.853Z,3.44
2019-05-05T00:37:45.090Z,3.40
2019-05-05T00:40:15.108Z,3.37
2019-05-05T00:42:45.588Z,3.30
2019-05-05T00:45:14.903Z,3.25
2019-05-05T00:47:54.284Z,3.08
2019-05-05T00:50:25.263Z,3.02
2019-05-05T00:52:55.062Z,3.00
2019-05-05T00:55:24.513Z,2.98
2019-05-05T00:57:54.794Z,3.02
2019-05-05T01:00:44.421Z,3.00
2019-05-05T01:03:15.312Z,2.99
2019-05-05T01:06:09.306Z,2.99
2019-05-05T01:08:38.416Z,2.97
2019-05-05T01:11:07.758Z,2.95
2019-05-05T01:13:37.217Z,2.93
2019-05-05T01:16:06.356Z,2.93
2019-05-05T01:18:35.480Z,2.91
2019-05-05T01:21:04.703Z,2.88
2019-05-05T01:23:34.991Z,2.84
2019-05-05T01:26:05.147Z,2.82
2019-05-05T01:28:35.527Z,2.80
2019-05-05T01:34:15.118Z,2.77
2019-05-05T01:36:45.374Z,2.76
2019-05-05T01:39:34.564Z,2.73
2019-05-05T01:42:10.098Z,2.30
2019-05-05T01:44:39.222Z,2.69
2019-05-05T01:47:08.466Z,2.67
2019-05-05T01:49:37.693Z,2.68
2019-05-05T01:52:06.858Z,2.64
2019-05-05T01:54:35.982Z,2.59
2019-05-05T01:57:05.599Z,2.59
2019-05-05T01:59:35.505Z,2.58
2019-05-05T02:02:04.742Z,2.48
2019-05-05T02:04:34.405Z,2.55
2019-05-05T02:07:05.467Z,2.54
2019-05-05T02:09:36.713Z,2.54
2019-05-05T02:12:05.863Z,2.55
2019-05-05T02:14:35.327Z,2.55
2019-05-05T02:17:05.166Z,2.52
2019-05-05T02:19:34.990Z,2.54
2019-05-05T02:22:05.290Z,2.53
2019-05-05T02:24:35.358Z,2.51
2019-05-05T02:27:05.237Z,2.47
2019-05-05T02:29:40.344Z,2.46
2019-05-05T02:34:59.059Z,2.45
2019-05-05T02:37:28.196Z,2.41
2019-05-05T02:40:02.951Z,2.41
2019-05-05T02:42:29.097Z,2.39
2019-05-05T02:45:01.663Z,2.38
2019-05-05T02:47:55.194Z,2.36
2019-05-05T02:50:27.479Z,2.33
2019-05-05T02:52:59.565Z,2.30
2019-05-05T02:55:32.191Z,2.28
2019-05-05T02:58:03.707Z,2.24
2019-05-05T03:00:50.495Z,1.85
2019-05-05T03:03:19.724Z,2.26
2019-05-05T03:05:48.959Z,2.23
2019-05-05T03:08:18.434Z,2.21
2019-05-05T03:10:47.738Z,2.17
2019-05-05T03:13:18.172Z,2.13
2019-05-05T03:15:54.922Z,2.10
2019-05-05T03:18:24.745Z,2.10
2019-05-05T03:21:02.410Z,2.08
2019-05-05T03:23:25.864Z,2.04
2019-05-05T03:25:55.300Z,2.02
2019-05-05T03:28:26.650Z,2.00
2019-05-05T03:30:56.455Z,1.99
2019-05-05T03:33:25.624Z,1.99
2019-05-05T03:35:54.879Z,1.96
2019-05-05T03:38:24.873Z,1.94
2019-05-05T03:40:55.575Z,1.91
2019-05-05T03:43:28.889Z,1.89
2019-05-05T03:46:00.562Z,1.85
2019-05-05T03:48:29.992Z,1.86
2019-05-05T03:50:59.128Z,1.88
2019-05-05T03:53:29.078Z,1.93
2019-05-05T03:55:58.217Z,1.94
2019-05-05T03:58:28.010Z,1.98
2019-05-05T04:01:36.954Z,2.00
2019-05-05T04:04:44.133Z,2.04
2019-05-05T04:07:14.025Z,2.10
2019-05-05T04:09:44.289Z,2.16
2019-05-05T04:12:14.324Z,2.19
2019-05-05T04:14:45.754Z,2.21
2019-05-05T04:17:33.863Z,2.22
2019-05-05T04:20:24.077Z,2.20
2019-05-05T04:22:54.257Z,2.16
2019-05-05T04:25:24.401Z,2.13
2019-05-05T04:27:53.946Z,2.16
2019-05-05T04:30:23.796Z,-0.23
2019-05-05T04:32:54.609Z,2.23
2019-05-05T04:35:24.641Z,2.29
2019-05-05T04:37:54.403Z,2.31
2019-05-05T04:40:24.183Z,2.33
2019-05-05T04:42:54.696Z,2.41
2019-05-05T04:45:24.226Z,2.46
2019-05-05T04:51:17.140Z,2.54
2019-05-05T04:54:03.979Z,2.59
2019-05-05T04:56:34.297Z,2.59
2019-05-05T04:59:04.101Z,2.62
2019-05-05T05:01:33.785Z,2.66
2019-05-05T05:04:24.933Z,2.68
2019-05-05T05:06:55.699Z,2.73
2019-05-05T05:09:24.893Z,2.74
2019-05-05T05:11:54.716Z,2.73
2019-05-05T05:14:24.802Z,0.55
2019-05-05T05:16:55.051Z,2.71
2019-05-05T05:19:24.333Z,2.79
2019-05-05T05:22:01.727Z,2.83
2019-05-05T05:24:27.447Z,2.89
2019-05-05T05:26:56.661Z,2.95
2019-05-05T05:29:25.791Z,3.04
2019-05-05T05:31:54.948Z,3.10
2019-05-05T05:34:24.065Z,3.17
2019-05-05T05:36:53.683Z,3.23
2019-05-05T05:39:44.683Z,3.27
2019-05-05T05:42:13.878Z,3.32
2019-05-05T05:44:54.209Z,3.34
2019-05-05T05:47:53.562Z,3.36
2019-05-05T05:50:29.914Z,3.44
2019-05-05T05:52:59.059Z,3.49
2019-05-05T05:55:28.167Z,3.52
2019-05-05T05:57:57.315Z,3.63
2019-05-05T06:00:26.725Z,3.73
2019-05-05T06:02:55.879Z,3.86
2019-05-05T06:05:25.010Z,3.97
2019-05-05T06:07:54.586Z,4.08
2019-05-05T06:10:26.676Z,4.21
2019-05-05T06:12:54.863Z,4.32
2019-05-05T06:15:24.546Z,4.42
2019-05-05T06:17:53.995Z,4.58
2019-05-05T06:20:23.831Z,4.77
2019-05-05T06:22:53.673Z,4.98
2019-05-05T06:25:26.547Z,5.13
2019-05-05T06:27:56.086Z,5.19
2019-05-05T06:30:25.200Z,5.20
2019-05-05T06:32:54.661Z,5.27
2019-05-05T06:35:24.452Z,5.34
2019-05-05T06:37:54.452Z,5.39
2019-05-05T06:40:44.271Z,5.47
2019-05-05T06:43:30.936Z,5.54
2019-05-05T06:46:03.939Z,5.61
2019-05-05T06:48:34.377Z,5.73
2019-05-05T06:51:04.044Z,5.94
2019-05-05T06:53:34.241Z,6.14
2019-05-05T06:56:04.077Z,6.31
2019-05-05T06:58:34.709Z,6.41
2019-05-05T07:01:03.966Z,6.49
2019-05-05T07:03:33.779Z,6.55
2019-05-05T07:06:04.257Z,6.59
2019-05-05T07:08:34.753Z,6.61
2019-05-05T07:11:04.279Z,6.58
2019-05-05T07:13:34.050Z,6.56
2019-05-05T07:16:04.880Z,6.66
2019-05-05T07:18:34.321Z,6.85
2019-05-05T07:21:03.824Z,7.04
2019-05-05T07:23:34.143Z,7.20
2019-05-05T07:26:04.139Z,7.44
2019-05-05T07:28:34.372Z,7.72
2019-05-05T07:31:04.423Z,8.05
2019-05-05T07:33:34.637Z,8.31
2019-05-05T07:36:24.962Z,8.52
2019-05-05T07:38:54.690Z,9.01
2019-05-05T07:41:23.931Z,9.80
2019-05-05T07:43:54.234Z,10.36
2019-05-05T07:46:24.125Z,10.46
2019-05-05T07:48:54.491Z,12.44
2019-05-05T07:51:24.297Z,15.13
2019-05-05T07:53:54.720Z,17.15
2019-05-05T07:56:24.091Z,18.60
2019-05-05T07:58:54.365Z,19.37
2019-05-05T08:01:24.483Z,19.31
2019-05-05T08:03:53.994Z,18.89
2019-05-05T08:06:23.688Z,18.27
2019-05-05T08:08:54.556Z,17.72
2019-05-05T08:11:23.970Z,17.12
2019-05-05T08:13:54.731Z,16.87
2019-05-05T08:16:41.529Z,16.76
2019-05-05T08:19:43.383Z,16.53
2019-05-05T08:22:14.138Z,16.29
2019-05-05T08:25:05.433Z,16.43
2019-05-05T08:27:48.594Z,16.47
2019-05-05T08:30:24.425Z,16.43
2019-05-05T08:32:54.609Z,13.96
2019-05-05T08:35:23.918Z,15.46
2019-05-05T08:37:54.242Z,14.73
2019-05-05T08:40:24.032Z,14.75
2019-05-05T08:45:27.970Z,15.32
2019-05-05T08:47:57.107Z,14.57
2019-05-05T08:50:27.132Z,15.37
2019-05-05T08:53:04.454Z,14.76
2019-05-05T08:55:38.701Z,14.06
2019-05-05T08:58:10.271Z,13.55
2019-05-05T09:00:40.200Z,13.16
2019-05-05T09:03:18.877Z,13.17
2019-05-05T09:05:48.161Z,13.39
2019-05-05T09:08:17.339Z,13.67
2019-05-05T09:10:46.583Z,13.60
2019-05-05T09:15:48.276Z,12.65
2019-05-05T09:19:17.676Z,12.37
2019-05-05T09:25:57.669Z,12.56
2019-05-05T09:28:33.999Z,13.28
2019-05-05T09:31:04.171Z,13.31
2019-05-05T09:33:33.958Z,12.91
2019-05-05T09:36:04.699Z,12.70
2019-05-05T09:38:34.711Z,12.41
2019-05-05T09:41:04.455Z,12.35
2019-05-05T09:43:34.565Z,12.18
2019-05-05T09:46:04.091Z,12.22
2019-05-05T09:48:33.652Z,12.27
2019-05-05T09:51:04.383Z,12.22
2019-05-05T09:53:35.311Z,12.17
2019-05-05T09:56:04.707Z,12.15
2019-05-05T09:58:34.854Z,12.06
2019-05-05T10:01:05.005Z,11.96
2019-05-05T10:03:34.198Z,11.79
2019-05-05T10:06:05.016Z,11.67
2019-05-05T10:08:34.338Z,11.54
2019-05-05T10:11:04.086Z,11.33
2019-05-05T10:13:33.750Z,11.19
2019-05-05T10:16:03.973Z,11.10
2019-05-05T10:18:35.560Z,10.98
2019-05-05T10:21:04.696Z,10.79
2019-05-05T10:23:35.718Z,10.69
2019-05-05T10:26:07.964Z,10.75
2019-05-05T10:28:37.125Z,10.80
2019-05-05T10:31:06.291Z,10.70
2019-05-05T10:33:38.406Z,10.75
2019-05-05T10:36:07.534Z,10.80
2019-05-05T10:38:38.318Z,10.81
2019-05-05T10:41:07.442Z,10.93
2019-05-05T10:43:36.554Z,11.12
2019-05-05T10:46:05.670Z,11.49
2019-05-05T10:48:34.824Z,11.66
2019-05-05T10:51:04.317Z,11.78
2019-05-05T10:53:33.556Z,11.82
2019-05-05T10:56:04.424Z,11.98
2019-05-05T10:58:33.696Z,12.16
2019-05-05T11:01:04.183Z,12.45
2019-05-05T11:03:34.390Z,12.66
2019-05-05T11:06:04.585Z,12.69
2019-05-05T11:08:34.798Z,12.98
2019-05-05T11:11:04.482Z,13.25
2019-05-05T11:13:34.485Z,13.19
2019-05-05T11:16:04.040Z,13.26
2019-05-05T11:18:34.605Z,13.30
2019-05-05T11:21:04.174Z,13.39
2019-05-05T11:23:34.601Z,13.54
2019-05-05T11:26:03.838Z,13.60
2019-05-05T11:28:35.433Z,13.68
2019-05-05T11:31:04.748Z,13.69
2019-05-05T11:33:48.998Z,13.75
2019-05-05T11:36:31.631Z,13.71
2019-05-05T11:39:00.778Z,13.70
2019-05-05T11:41:29.921Z,13.68
2019-05-05T11:43:59.230Z,13.71
2019-05-05T11:46:29.276Z,13.71
2019-05-05T11:48:58.728Z,13.64
2019-05-05T11:51:27.827Z,13.50
2019-05-05T11:53:56.991Z,13.51
2019-05-05T11:56:26.103Z,13.48
2019-05-05T11:58:55.240Z,13.45
2019-05-05T12:01:24.570Z,13.29
2019-05-05T12:03:53.934Z,13.47
2019-05-05T12:06:24.648Z,13.36
2019-05-05T12:08:53.896Z,13.63
2019-05-05T12:11:23.985Z,13.86
2019-05-05T12:13:54.625Z,13.89
2019-05-05T12:16:31.065Z,13.85
2019-05-05T12:19:02.630Z,13.81
2019-05-05T12:21:33.749Z,13.66
2019-05-05T12:24:06.479Z,13.70
2019-05-05T12:26:54.113Z,13.63
2019-05-05T12:29:28.942Z,13.67
2019-05-05T12:31:58.082Z,13.79
2019-05-05T12:34:27.173Z,13.83
2019-05-05T12:36:56.303Z,13.83
2019-05-05T12:39:25.411Z,13.83
2019-05-05T12:41:54.607Z,13.65
2019-05-05T12:44:28.644Z,13.62
2019-05-05T12:47:14.538Z,13.63
2019-05-05T12:49:44.038Z,13.76
2019-05-05T12:52:13.936Z,14.00
2019-05-05T12:54:44.041Z,14.09
2019-05-05T12:57:13.760Z,14.09
2019-05-05T12:59:44.391Z,13.99
2019-05-05T13:02:14.305Z,13.91
2019-05-05T13:04:43.586Z,13.84
2019-05-05T13:07:13.607Z,13.66
2019-05-05T13:09:44.116Z,13.59
2019-05-05T13:12:14.986Z,13.57
2019-05-05T13:14:44.176Z,13.55
2019-05-05T13:17:14.213Z,13.59
2019-05-05T13:20:02.537Z,13.59
2019-05-05T13:23:08.900Z,13.63
2019-05-05T13:26:09.615Z,13.69
2019-05-05T13:28:38.749Z,13.68
2019-05-05T13:31:07.879Z,13.65
2019-05-05T13:33:37.437Z,13.44
2019-05-05T13:36:06.567Z,13.13
2019-05-05T13:38:35.701Z,13.16
2019-05-05T13:41:04.898Z,12.98
2019-05-05T13:43:34.316Z,13.09
2019-05-05T13:46:11.319Z,13.13
2019-05-05T13:48:40.457Z,13.06
2019-05-05T13:51:09.666Z,12.82
2019-05-05T13:53:38.795Z,12.51
2019-05-05T13:56:12.344Z,12.53
2019-05-05T13:58:38.855Z,12.57
2019-05-05T14:01:09.890Z,12.49
2019-05-05T14:03:38.905Z,12.53
2019-05-05T14:06:08.053Z,12.62
2019-05-05T14:08:37.254Z,12.67
2019-05-05T14:11:06.436Z,12.70
2019-05-05T14:13:35.558Z,12.81
2019-05-05T14:16:04.814Z,12.94
2019-05-05T14:18:33.940Z,13.09
2019-05-05T14:21:03.083Z,13.30
2019-05-05T14:23:34.561Z,13.38
2019-05-05T14:26:04.784Z,13.48
2019-05-05T14:28:34.228Z,13.47
2019-05-05T14:31:17.459Z,13.56
2019-05-05T14:34:00.774Z,13.69
2019-05-05T14:36:36.802Z,13.92
2019-05-05T14:39:08.684Z,14.08
2019-05-05T14:41:37.802Z,14.32
2019-05-05T14:44:06.984Z,14.54
2019-05-05T14:46:36.098Z,14.54
2019-05-05T14:49:05.844Z,14.69
2019-05-05T14:51:35.136Z,14.74
2019-05-05T14:54:04.748Z,14.69
2019-05-05T14:56:36.391Z,14.93
2019-05-05T14:59:05.037Z,14.74
2019-05-05T15:01:34.503Z,14.79
2019-05-05T15:04:04.332Z,14.79
2019-05-05T15:06:41.563Z,14.72
2019-05-05T15:09:33.620Z,14.57
2019-05-05T15:12:16.742Z,14.57
2019-05-05T15:14:45.900Z,14.56
2019-05-05T15:17:15.033Z,14.47
2019-05-05T15:19:44.165Z,14.39
2019-05-05T15:22:15.019Z,14.26
2019-05-05T15:24:44.642Z,14.24
2019-05-05T15:27:13.780Z,14.23
2019-05-05T15:29:43.599Z,14.22
2019-05-05T15:32:14.794Z,14.23
2019-05-05T15:34:44.091Z,14.24
2019-05-05T15:37:14.470Z,14.22
2019-05-05T15:39:44.222Z,14.15
2019-05-05T15:42:13.478Z,14.16
2019-05-05T15:44:43.950Z,13.93
2019-05-05T15:47:13.085Z,14.10
2019-05-05T15:49:43.977Z,14.08
2019-05-05T15:52:13.744Z,13.04
2019-05-05T15:54:44.673Z,13.89
2019-05-05T15:57:14.930Z,13.97
2019-05-05T15:59:44.884Z,14.09
2019-05-05T16:02:14.033Z,14.14
2019-05-05T16:04:44.464Z,14.28
2019-05-05T16:07:13.908Z,14.13
2019-05-05T16:09:44.483Z,14.23
2019-05-05T16:12:14.437Z,14.27
2019-05-05T16:14:58.194Z,14.19
2019-05-05T16:17:36.735Z,14.20
2019-05-05T16:20:10.567Z,14.25
2019-05-05T16:22:43.871Z,14.26
2019-05-05T16:25:14.374Z,14.24
2019-05-05T16:27:45.011Z,14.25
2019-05-05T16:30:14.966Z,14.17
2019-05-05T16:32:44.287Z,14.11
2019-05-05T16:35:14.928Z,14.07
2019-05-05T16:37:44.095Z,14.00
2019-05-05T16:40:14.425Z,13.98
2019-05-05T16:42:43.821Z,13.97
2019-05-05T16:45:16.477Z,13.97
2019-05-05T16:47:45.907Z,13.93
2019-05-05T16:50:16.266Z,13.91
2019-05-05T16:52:51.830Z,13.92
2019-05-05T16:55:44.756Z,13.91
2019-05-05T16:58:14.013Z,13.95
2019-05-05T17:00:44.117Z,13.99
2019-05-05T17:03:13.582Z,13.92
2019-05-05T17:05:44.131Z,13.91
2019-05-05T17:08:14.096Z,13.86
2019-05-05T17:10:43.661Z,13.85
2019-05-05T17:13:50.241Z,13.87
2019-05-05T17:16:36.669Z,13.84
2019-05-05T17:19:14.283Z,13.72
2019-05-05T17:22:00.936Z,13.69
2019-05-05T17:24:30.111Z,13.68
2019-05-05T17:26:59.386Z,13.67
2019-05-05T17:29:28.555Z,13.62
2019-05-05T17:31:57.711Z,13.53
2019-05-05T17:34:26.900Z,13.18
2019-05-05T17:36:56.087Z,13.09
2019-05-05T17:39:26.980Z,13.06
2019-05-05T17:42:03.743Z,12.94
2019-05-05T17:44:51.996Z,12.84
2019-05-05T17:47:34.421Z,12.80
2019-05-05T17:50:14.465Z,12.62
2019-05-05T17:52:50.181Z,12.57
2019-05-05T17:55:29.576Z,12.48
2019-05-05T17:58:02.367Z,12.36
2019-05-05T18:00:34.304Z,12.29
2019-05-05T18:03:04.333Z,12.19
2019-05-05T18:05:51.438Z,12.12
2019-05-05T18:08:38.303Z,12.03
2019-05-05T18:11:13.923Z,11.99
2019-05-05T18:13:47.338Z,11.92
2019-05-05T18:16:17.644Z,11.85
2019-05-05T18:18:46.804Z,11.80
2019-05-05T18:21:18.723Z,11.73
2019-05-05T18:23:47.892Z,11.67
2019-05-05T18:26:17.100Z,11.64
2019-05-05T18:28:48.080Z,11.60
2019-05-05T18:31:17.172Z,11.55
2019-05-05T18:33:46.302Z,11.49
2019-05-05T18:36:15.831Z,11.42
2019-05-05T18:38:45.016Z,11.36
2019-05-05T18:41:27.142Z,11.32
2019-05-05T18:44:05.966Z,11.28
2019-05-05T18:46:35.146Z,11.20
2019-05-05T18:49:04.493Z,11.12
2019-05-05T18:51:34.790Z,11.04
2019-05-05T18:54:04.256Z,10.94
2019-05-05T18:56:34.795Z,10.84
2019-05-05T18:59:06.551Z,10.75
2019-05-05T19:01:52.406Z,10.68
2019-05-05T19:04:27.490Z,10.59
2019-05-05T19:07:00.611Z,10.51
2019-05-05T19:09:29.734Z,10.41
2019-05-05T19:11:58.854Z,10.35
2019-05-05T19:14:30.162Z,10.27
2019-05-05T19:16:59.086Z,10.23
2019-05-05T19:19:28.252Z,10.16
2019-05-05T19:22:01.460Z,10.08
2019-05-05T19:24:30.659Z,10.03
2019-05-05T19:26:59.907Z,9.95
2019-05-05T19:29:29.112Z,9.88
2019-05-05T19:31:58.302Z,9.78
2019-05-05T19:34:27.430Z,9.70
2019-05-05T19:36:56.657Z,9.61
2019-05-05T19:39:25.808Z,9.47
2019-05-05T19:41:54.955Z,9.33
2019-05-05T19:44:26.053Z,8.35
2019-05-05T19:47:00.366Z,9.21
2019-05-05T19:49:29.685Z,9.16
2019-05-05T19:51:58.807Z,9.11
2019-05-05T19:54:27.936Z,9.05
2019-05-05T19:56:57.077Z,8.97
2019-05-05T19:59:26.238Z,8.89
2019-05-05T20:01:55.372Z,8.80
2019-05-05T20:04:24.491Z,8.71
2019-05-05T20:06:54.782Z,8.66
2019-05-05T20:09:24.719Z,8.61
2019-05-05T20:11:54.580Z,8.57
2019-05-05T20:14:24.808Z,8.52
2019-05-05T20:17:14.755Z,8.48
2019-05-05T20:19:45.771Z,8.42
2019-05-05T20:22:15.065Z,8.37
2019-05-05T20:24:44.568Z,8.31
2019-05-05T20:27:14.075Z,8.26
2019-05-05T20:29:44.799Z,8.20
2019-05-05T20:32:14.917Z,8.13
2019-05-05T20:38:21.003Z,7.98
2019-05-05T20:41:08.476Z,7.90
2019-05-05T20:43:37.633Z,7.80
2019-05-05T20:46:06.741Z,7.75
2019-05-05T20:48:35.903Z,7.70
2019-05-05T20:51:05.353Z,7.63
2019-05-05T20:53:34.573Z,7.58
2019-05-05T20:56:04.255Z,7.51
2019-05-05T20:58:33.806Z,7.44
2019-05-05T21:01:04.502Z,7.39
2019-05-05T21:03:34.656Z,7.31
2019-05-05T21:06:04.622Z,7.22
2019-05-05T21:08:34.831Z,7.19
2019-05-05T21:11:04.526Z,7.17
2019-05-05T21:13:35.057Z,7.14
2019-05-05T21:16:04.198Z,7.10
2019-05-05T21:18:34.741Z,7.04
2019-05-05T21:21:06.001Z,7.01
2019-05-05T21:23:49.103Z,6.97
2019-05-05T21:26:25.439Z,6.93
2019-05-05T21:28:54.585Z,6.92
2019-05-05T21:31:24.055Z,6.94
2019-05-05T21:33:54.812Z,6.93
2019-05-05T21:36:24.391Z,6.90
2019-05-05T21:38:54.750Z,6.90
2019-05-05T21:41:24.527Z,6.90
2019-05-05T21:43:54.200Z,6.91
2019-05-05T21:46:24.010Z,6.88
2019-05-05T21:48:54.331Z,6.87
2019-05-05T21:51:53.844Z,6.87
2019-05-05T21:54:31.279Z,6.84
2019-05-05T21:57:18.185Z,6.83
2019-05-05T21:59:55.729Z,6.84
2019-05-05T22:02:18.365Z,6.83
2019-05-05T22:04:47.504Z,6.82
2019-05-05T22:07:16.647Z,6.82
2019-05-05T22:09:45.771Z,6.82
2019-05-05T22:12:17.311Z,6.82
2019-05-05T22:14:46.465Z,6.82
2019-05-05T22:17:15.621Z,6.82
2019-05-05T22:19:54.335Z,6.82
2019-05-05T22:22:25.113Z,6.80
2019-05-05T22:24:54.253Z,6.80
2019-05-05T22:27:23.793Z,6.79
2019-05-05T22:29:55.377Z,6.79
2019-05-05T22:32:24.965Z,6.77
2019-05-05T22:34:54.096Z,6.76
2019-05-05T22:37:23.658Z,6.75
2019-05-05T22:39:54.192Z,6.73
2019-05-05T22:42:24.679Z,6.72
2019-05-05T22:44:53.951Z,6.72
2019-05-05T22:47:23.625Z,6.74
2019-05-05T22:49:53.963Z,6.73
2019-05-05T22:52:25.326Z,6.73
2019-05-05T22:54:54.380Z,6.69
2019-05-05T22:57:24.735Z,6.71
2019-05-05T22:59:54.400Z,6.74
2019-05-05T23:02:25.308Z,6.75
2019-05-05T23:05:00.086Z,6.78
2019-05-05T23:07:34.710Z,6.78
2019-05-05T23:10:04.590Z,6.78
2019-05-05T23:12:35.101Z,6.77
2019-05-05T23:15:05.529Z,6.77
2019-05-05T23:17:56.171Z,6.77
2019-05-05T23:21:15.648Z,6.76
2019-05-05T23:24:04.488Z,6.76
2019-05-05T23:29:26.563Z,6.73
2019-05-05T23:31:55.508Z,6.70
2019-05-05T23:34:24.736Z,6.68
2019-05-05T23:36:53.983Z,6.66
2019-05-05T23:39:24.315Z,6.65
2019-05-05T23:41:54.647Z,6.63
2019-05-05T23:44:24.094Z,6.61
2019-05-05T23:46:53.891Z,6.57
2019-05-05T23:49:24.164Z,6.54
2019-05-05T23:51:54.134Z,6.48
2019-05-05T23:54:24.634Z,6.41
2019-05-05T23:56:54.118Z,6.36
2019-05-05T23:59:24.065Z,6.31
